Аэропорт: Челябинск. Челябинск

ICAO: USCC

METAR:
2018/11/21 18:30
USCC 211830Z 21005MPS 5000 -SHSN BKN014CB M03/M05 Q0994 R27/590340 TEMPO 0900 +SHSN VV003 RMK QFE726
METAR:
2018/11/21 18:21
TAF TAF USCC 211700Z 2118/2218 29003G10MPS 3100 -SHSN BKN011CB 
      TEMPO 2118/2124 25006G15MPS 
      TEMPO 2200/2218 30008G17MPS 4100 -SHSN BKN015CB